Aeroporto :
LOGIN :

Iscrizione | Disclaimer

   EN    FR    IT 

 










Sommario :    VFR   VFR Marginale   IFR   IFR Intensivo   IFR Molto Intensivo
Visibilità : 
Base nubi : 
>= 8 km
>= 3000ft
5 / 8 km
1000 / 3000 ft
1500m / 5 km
500 / 1000 ft
800 / 1500m
200 / 500 ft
< 800m
< 200 ft
Simboli :   Temporali  Nebbia  Neve Forte  Precipitazioni Forti  Vento > 20 kt
SIGMETs :   Varie  Temporali  Ghiacco  Turbolenza  Onda orograficha  Ceneri Vulcaniche






- Altitudine del aeroporto : 1325 ft
- Codice IATA : EBU


LFMH - St-Etienne Boutheon

ULTIMO METAR :
  • 192200Z AUTO 14004KT 9999 OVC035 05/03 Q1027

METARs OBSOLETI :
  • 192130Z AUTO 16007KT 9999 BKN036 BKN054 05/04 Q1028 NOSIG
  • 192100Z AUTO 17005KT 9999 FEW033 SCT046 BKN052 04/03 Q1028 NOSIG
  • 192030Z AUTO 21004KT 9999 FEW032 OVC046 06/04 Q1028 NOSIG
  • 192000Z AUTO 23003KT 200V270 9999 -RA BKN034 BKN044 BKN058 06/04 Q1028 NOSIG
  • 191930Z AUTO 25003KT 9999 BKN036 OVC072 06/04 Q1028 NOSIG

TAF TAF LFMH
Valido dal 19 a 15 ore il 20 a 15 ore UTC


191400Z 1915/2015 36008KT 9999 BKN030
PROB40
TEMPO 1917/1923 BKN015
BECMG 1918/1920 VRB02KT
BECMG 1922/1924 16005KT
BECMG 2002/2004 CAVOK
PROB30
TEMPO 2004/2008 0800 BCFG
ATIS : +33 4 77 36 17 51



MetMap, La meteo Aeronautica in un colpo d'occhio ! - Copyright ORBIFLY Dicembre 2007 - Disclaimer

ORBIFLY MET'MAP TEAM :

Programmazione e sviluppo : Alexandra Zaïnal
Concezione : Baudouin d'Aumeries
Aiuto per la programmazione : Marc-Olivier Méhu
Supporto tecnico e logistico : Manuel Goepfert
Aiuto per la traduzione : Arnaldo La Scala

Contatto : metmap@orbifly.com




FONTI E CREDITI :

   NOAA